createdAt,value
2023-04-09T00:00:28.073Z,78.10
2023-04-09T00:02:55.672Z,83.03
2023-04-09T00:05:24.806Z,86.70
2023-04-09T00:07:52.374Z,85.25
2023-04-09T00:10:20.169Z,88.53
2023-04-09T00:12:47.707Z,78.82
2023-04-09T00:15:27.924Z,83.57
2023-04-09T00:17:58.716Z,81.78
2023-04-09T00:20:27.702Z,80.75
2023-04-09T00:22:56.219Z,85.90
2023-04-09T00:25:23.767Z,77.60
2023-04-09T00:27:51.403Z,78.60
2023-04-09T00:30:18.932Z,76.05
2023-04-09T00:32:46.682Z,74.18
2023-04-09T00:35:14.293Z,77.20
2023-04-09T00:37:43.171Z,74.30
2023-04-09T00:40:11.293Z,66.13
2023-04-09T00:42:39.028Z,71.13
2023-04-09T00:45:07.937Z,65.40
2023-04-09T00:47:36.462Z,71.00
2023-04-09T00:50:04.736Z,72.95
2023-04-09T00:52:33.645Z,67.67
2023-04-09T00:55:05.556Z,68.70
2023-04-09T00:57:33.141Z,69.88
2023-04-09T01:00:00.828Z,71.30
2023-04-09T01:02:30.767Z,74.70
2023-04-09T01:04:58.856Z,68.87
2023-04-09T01:07:37.569Z,79.07
2023-04-09T01:10:18.022Z,74.57
2023-04-09T01:12:58.988Z,78.03
2023-04-09T01:15:30.861Z,76.22
2023-04-09T01:18:06.232Z,73.10
2023-04-09T01:20:37.172Z,78.85
2023-04-09T01:23:20.664Z,81.72
2023-04-09T01:26:03.081Z,79.80
2023-04-09T01:28:44.309Z,83.22
2023-04-09T01:31:14.423Z,92.83
2023-04-09T01:33:42.867Z,79.88
2023-04-09T01:36:11.334Z,82.60
2023-04-09T01:38:42.324Z,80.88
2023-04-09T01:41:13.084Z,81.40
2023-04-09T01:43:43.065Z,70.60
2023-04-09T01:46:11.888Z,78.95
2023-04-09T01:48:40.265Z,82.85
2023-04-09T01:51:07.903Z,79.82
2023-04-09T01:53:35.546Z,82.20
2023-04-09T01:56:03.570Z,82.67
2023-04-09T01:58:33.995Z,89.10
2023-04-09T02:01:11.761Z,85.38
2023-04-09T02:03:43.012Z,81.13
2023-04-09T02:06:16.677Z,80.22
2023-04-09T02:08:47.424Z,82.90
2023-04-09T02:11:16.866Z,83.43
2023-04-09T02:13:45.657Z,88.15
2023-04-09T02:16:16.589Z,80.30
2023-04-09T02:18:44.497Z,81.70
2023-04-09T02:21:13.591Z,82.90
2023-04-09T02:23:41.219Z,87.88
2023-04-09T02:26:08.737Z,82.15
2023-04-09T02:28:36.307Z,80.65
2023-04-09T02:31:03.937Z,79.47
2023-04-09T02:33:32.962Z,81.13
2023-04-09T02:36:00.513Z,75.75
2023-04-09T02:38:28.318Z,80.88
2023-04-09T02:40:56.222Z,85.70
2023-04-09T02:43:23.949Z,77.78
2023-04-09T02:45:51.482Z,81.87
2023-04-09T02:48:18.994Z,77.88
2023-04-09T02:50:47.878Z,80.97
2023-04-09T02:53:15.405Z,79.00
2023-04-09T02:55:42.931Z,75.07
2023-04-09T02:58:10.578Z,82.30
2023-04-09T03:00:38.170Z,84.40
2023-04-09T03:03:06.376Z,80.55
2023-04-09T03:05:33.981Z,84.80
2023-04-09T03:08:02.917Z,79.30
2023-04-09T03:10:30.442Z,80.47
2023-04-09T03:12:57.980Z,79.85
2023-04-09T03:15:26.452Z,81.20
2023-04-09T03:17:54.045Z,72.35
2023-04-09T03:20:21.870Z,75.30
2023-04-09T03:22:49.440Z,84.73
2023-04-09T03:25:35.145Z,76.13
2023-04-09T03:28:11.217Z,75.68
2023-04-09T03:30:43.494Z,73.65
2023-04-09T03:33:11.023Z,92.32
2023-04-09T03:35:49.129Z,86.00
2023-04-09T03:38:19.496Z,83.95
2023-04-09T03:40:48.416Z,88.28
2023-04-09T03:43:16.074Z,82.57
2023-04-09T03:45:49.102Z,83.50
2023-04-09T03:48:22.589Z,80.23
2023-04-09T03:50:51.612Z,85.95
2023-04-09T03:53:26.344Z,86.75
2023-04-09T03:56:02.951Z,82.57
2023-04-09T03:58:30.916Z,83.63
2023-04-09T04:00:59.152Z,87.47
2023-04-09T04:03:35.746Z,94.35
2023-04-09T04:06:22.956Z,80.30
2023-04-09T04:08:58.128Z,86.47
2023-04-09T04:11:36.092Z,79.57
2023-04-09T04:14:03.659Z,83.13
2023-04-09T04:16:32.299Z,81.65
2023-04-09T04:19:00.641Z,84.28
2023-04-09T04:21:29.670Z,87.47
2023-04-09T04:24:01.613Z,83.95
2023-04-09T04:26:30.805Z,78.73
2023-04-09T04:28:59.783Z,83.30
2023-04-09T04:31:40.240Z,83.97
2023-04-09T04:34:07.920Z,83.65
2023-04-09T04:36:37.430Z,87.20
2023-04-09T04:39:05.806Z,90.60
2023-04-09T04:41:44.510Z,86.55
2023-04-09T04:44:21.621Z,80.85
2023-04-09T04:46:53.009Z,88.72
2023-04-09T04:49:20.581Z,90.40
2023-04-09T04:51:49.046Z,74.63
2023-04-09T04:54:17.839Z,82.90
2023-04-09T04:56:52.300Z,78.20
2023-04-09T04:59:32.974Z,81.13
2023-04-09T05:02:06.251Z,74.63
2023-04-09T05:04:41.366Z,69.80
2023-04-09T05:07:12.463Z,68.40
2023-04-09T05:09:48.060Z,67.30
2023-04-09T05:12:17.853Z,65.78
2023-04-09T05:14:50.590Z,65.38
2023-04-09T05:17:18.202Z,60.80
2023-04-09T05:19:52.070Z,67.40
2023-04-09T05:22:23.290Z,69.63
2023-04-09T05:24:51.388Z,70.03
2023-04-09T05:27:19.353Z,63.92
2023-04-09T05:29:51.082Z,65.73
2023-04-09T05:32:18.786Z,62.95
2023-04-09T05:34:46.695Z,58.70
2023-04-09T05:37:14.341Z,63.97
2023-04-09T05:39:43.092Z,69.70
2023-04-09T05:42:10.841Z,62.17
2023-04-09T05:44:45.360Z,62.35
2023-04-09T05:47:18.681Z,59.55
2023-04-09T05:50:07.496Z,57.55
2023-04-09T05:52:35.912Z,62.80
2023-04-09T05:55:05.473Z,60.33
2023-04-09T05:57:59.573Z,57.72
2023-04-09T06:00:27.655Z,58.15
2023-04-09T06:02:56.644Z,58.35
2023-04-09T06:05:24.258Z,55.88
2023-04-09T06:07:52.437Z,53.70
2023-04-09T06:10:20.202Z,52.53
2023-04-09T06:12:49.422Z,57.67
2023-04-09T06:15:17.225Z,58.90
2023-04-09T06:17:44.940Z,52.55
2023-04-09T06:20:13.951Z,55.97
2023-04-09T06:22:41.532Z,55.63
2023-04-09T06:25:09.494Z,52.08
2023-04-09T06:27:37.074Z,51.45
2023-04-09T06:30:05.149Z,51.20
2023-04-09T06:32:37.695Z,55.03
2023-04-09T06:35:11.237Z,55.25
2023-04-09T06:37:40.229Z,53.90
2023-04-09T06:40:09.081Z,48.17
2023-04-09T06:42:36.578Z,49.70
2023-04-09T06:45:27.445Z,52.23
2023-04-09T06:47:54.966Z,45.25
2023-04-09T06:50:22.570Z,51.08
2023-04-09T06:52:52.479Z,49.88
2023-04-09T06:55:20.326Z,47.13
2023-04-09T06:57:47.904Z,48.77
2023-04-09T07:00:16.329Z,48.83
2023-04-09T07:02:44.075Z,45.55
2023-04-09T07:05:11.956Z,46.47
2023-04-09T07:07:39.548Z,47.80
2023-04-09T07:10:09.769Z,48.97
2023-04-09T07:12:37.314Z,50.55
2023-04-09T07:15:07.030Z,52.22
2023-04-09T07:17:35.428Z,50.95
2023-04-09T07:20:03.585Z,47.75
2023-04-09T07:22:31.755Z,43.33
2023-04-09T07:24:59.580Z,48.97
2023-04-09T07:27:29.541Z,47.67
2023-04-09T07:29:57.978Z,45.10
2023-04-09T07:32:26.736Z,45.85
2023-04-09T07:34:54.819Z,46.43
2023-04-09T07:37:22.798Z,42.50
2023-04-09T07:39:51.211Z,41.08
2023-04-09T07:42:18.998Z,39.78
2023-04-09T07:44:47.909Z,43.67
2023-04-09T07:47:15.933Z,44.90
2023-04-09T07:49:43.540Z,40.72
2023-04-09T07:52:11.395Z,47.83
2023-04-09T07:54:38.965Z,40.88
2023-04-09T07:57:06.705Z,42.65
2023-04-09T07:59:36.209Z,48.17
2023-04-09T08:02:05.505Z,43.45
2023-04-09T08:04:33.250Z,42.63
2023-04-09T08:07:00.879Z,41.92
2023-04-09T08:09:28.458Z,39.70
2023-04-09T08:11:56.097Z,37.67
2023-04-09T08:14:23.738Z,41.83
2023-04-09T08:16:51.358Z,34.65
2023-04-09T08:19:20.493Z,35.00
2023-04-09T08:21:49.530Z,35.42
2023-04-09T08:24:17.386Z,40.37
2023-04-09T08:26:45.350Z,35.60
2023-04-09T08:29:14.426Z,38.83
2023-04-09T08:31:42.951Z,38.33
2023-04-09T08:34:10.570Z,41.28
2023-04-09T08:36:39.617Z,38.93
2023-04-09T08:39:07.177Z,39.95
2023-04-09T08:41:36.096Z,38.42
2023-04-09T08:44:03.630Z,34.33
2023-04-09T08:46:31.216Z,38.00
2023-04-09T08:48:58.966Z,39.13
2023-04-09T08:51:26.793Z,38.03
2023-04-09T08:53:58.040Z,35.20
2023-04-09T08:56:26.034Z,38.35
2023-04-09T08:58:54.746Z,36.95
2023-04-09T09:01:24.184Z,35.03
2023-04-09T09:04:01.390Z,37.88
2023-04-09T09:06:32.655Z,37.60
2023-04-09T09:09:07.033Z,35.60
2023-04-09T09:11:35.694Z,35.97
2023-04-09T09:14:04.618Z,36.97
2023-04-09T09:16:34.641Z,39.65
2023-04-09T09:19:02.832Z,38.75
2023-04-09T09:21:31.138Z,37.63
2023-04-09T09:23:59.034Z,33.58
2023-04-09T09:26:30.118Z,37.47
2023-04-09T09:28:59.245Z,38.10
2023-04-09T09:31:27.284Z,37.22
2023-04-09T09:33:55.437Z,39.25
2023-04-09T09:36:33.026Z,38.55
2023-04-09T09:39:03.838Z,46.30
2023-04-09T09:41:32.800Z,45.45
2023-04-09T09:44:00.417Z,85.00
2023-04-09T09:46:28.453Z,65.43
2023-04-09T09:48:57.223Z,43.00
2023-04-09T09:51:28.737Z,38.47
2023-04-09T09:53:57.954Z,37.05
2023-04-09T09:56:32.405Z,37.97
2023-04-09T09:59:08.407Z,36.42
2023-04-09T10:01:36.760Z,36.47
2023-04-09T10:04:07.416Z,37.60
2023-04-09T10:06:35.623Z,37.38
2023-04-09T10:09:06.729Z,40.33
2023-04-09T10:11:36.281Z,34.65
2023-04-09T10:14:06.142Z,38.67
2023-04-09T10:16:35.410Z,33.77
2023-04-09T10:19:03.514Z,34.47
2023-04-09T10:21:41.667Z,35.30
2023-04-09T10:24:11.404Z,38.60
2023-04-09T10:26:42.057Z,35.67
2023-04-09T10:29:14.348Z,37.83
2023-04-09T10:31:52.194Z,34.75
2023-04-09T10:34:22.430Z,54.80
2023-04-09T10:36:56.657Z,40.17
2023-04-09T10:39:27.810Z,37.30
2023-04-09T10:41:57.116Z,38.23
2023-04-09T10:44:27.421Z,38.33
2023-04-09T10:46:55.598Z,40.88
2023-04-09T10:49:24.820Z,36.58
2023-04-09T10:51:54.105Z,39.53
2023-04-09T10:54:47.518Z,40.37
2023-04-09T10:57:20.696Z,37.35
2023-04-09T10:59:51.203Z,38.25
2023-04-09T11:02:49.794Z,39.85
2023-04-09T11:05:22.779Z,40.30
2023-04-09T11:07:55.736Z,38.67
2023-04-09T11:10:23.313Z,39.70
2023-04-09T11:12:51.006Z,41.08
2023-04-09T11:15:21.064Z,41.63
2023-04-09T11:17:49.715Z,41.70
2023-04-09T11:20:20.378Z,39.43
2023-04-09T11:22:48.434Z,39.65
2023-04-09T11:25:20.590Z,40.72
2023-04-09T11:27:48.189Z,43.05
2023-04-09T11:30:16.112Z,40.35
2023-04-09T11:32:45.428Z,38.10
2023-04-09T11:35:15.025Z,36.55
2023-04-09T11:37:44.361Z,42.63
2023-04-09T11:40:19.394Z,40.30
2023-04-09T11:42:49.718Z,41.65
2023-04-09T11:45:18.016Z,40.47
2023-04-09T11:47:47.693Z,36.45
2023-04-09T11:50:16.318Z,39.45
2023-04-09T11:52:44.289Z,41.55
2023-04-09T11:55:12.464Z,42.05
2023-04-09T11:57:44.203Z,40.50
2023-04-09T12:00:13.381Z,38.92
2023-04-09T12:02:46.288Z,41.53
2023-04-09T12:05:22.991Z,50.25
2023-04-09T12:07:56.454Z,39.25
2023-04-09T12:10:28.223Z,39.50
2023-04-09T12:12:56.268Z,37.72
2023-04-09T12:15:25.538Z,37.65
2023-04-09T12:17:55.963Z,39.88
2023-04-09T12:20:32.668Z,36.08
2023-04-09T12:23:03.364Z,37.73
2023-04-09T12:25:32.115Z,38.28
2023-04-09T12:27:59.740Z,40.72
2023-04-09T12:30:27.462Z,41.10
2023-04-09T12:32:55.529Z,32.67
2023-04-09T12:35:23.872Z,35.17
2023-04-09T12:37:52.900Z,34.40
2023-04-09T12:40:21.204Z,36.60
2023-04-09T12:42:49.313Z,39.55
2023-04-09T12:45:18.252Z,36.20
2023-04-09T12:47:46.621Z,32.97
2023-04-09T12:50:16.035Z,35.17
2023-04-09T12:52:44.424Z,32.97
2023-04-09T12:55:14.475Z,33.45
2023-04-09T12:57:44.959Z,31.70
2023-04-09T13:00:13.766Z,35.70
2023-04-09T13:02:41.639Z,33.47
2023-04-09T13:05:09.769Z,32.05
2023-04-09T13:07:37.430Z,34.38
2023-04-09T13:10:05.528Z,31.55
2023-04-09T13:12:34.607Z,33.43
2023-04-09T13:15:02.143Z,34.08
2023-04-09T13:17:29.744Z,32.17
2023-04-09T13:19:57.285Z,32.30
2023-04-09T13:22:24.894Z,34.67
2023-04-09T13:24:52.545Z,32.47
2023-04-09T13:27:20.652Z,30.70
2023-04-09T13:29:49.550Z,30.85
2023-04-09T13:32:18.257Z,32.70
2023-04-09T13:34:45.988Z,32.00
2023-04-09T13:37:13.758Z,30.73
2023-04-09T13:39:41.285Z,30.90
2023-04-09T13:42:13.579Z,34.33
2023-04-09T13:44:44.605Z,31.02
2023-04-09T13:47:14.133Z,29.05
2023-04-09T13:49:41.923Z,33.30
2023-04-09T13:52:09.705Z,34.55
2023-04-09T13:54:38.327Z,31.15
2023-04-09T13:57:05.940Z,34.75
2023-04-09T13:59:33.681Z,31.80
2023-04-09T14:02:01.297Z,31.37
2023-04-09T14:04:30.536Z,33.20
2023-04-09T14:06:58.242Z,30.33
2023-04-09T14:09:25.840Z,31.58
2023-04-09T14:11:54.673Z,32.72
2023-04-09T14:14:22.249Z,31.30
2023-04-09T14:16:50.340Z,30.70
2023-04-09T14:19:18.026Z,29.70
2023-04-09T14:21:47.116Z,30.83
2023-04-09T14:24:14.726Z,27.55
2023-04-09T14:26:42.424Z,31.30
2023-04-09T14:29:09.977Z,33.08
2023-04-09T14:31:37.604Z,29.17
2023-04-09T14:34:05.277Z,29.05
2023-04-09T14:36:32.878Z,29.27
2023-04-09T14:39:01.719Z,32.73
2023-04-09T14:41:29.275Z,34.42
2023-04-09T14:43:56.824Z,28.48
2023-04-09T14:46:24.428Z,31.00
2023-04-09T14:48:52.215Z,28.77
2023-04-09T14:51:19.925Z,28.90
2023-04-09T14:53:47.457Z,30.80
2023-04-09T14:56:16.854Z,31.95
2023-04-09T14:58:44.494Z,28.58
2023-04-09T15:01:12.261Z,30.30
2023-04-09T15:03:41.967Z,31.43
2023-04-09T15:06:09.655Z,31.48
2023-04-09T15:08:37.270Z,30.77
2023-04-09T15:11:05.324Z,33.40
2023-04-09T15:13:34.432Z,31.60
2023-04-09T15:16:02.170Z,28.70
2023-04-09T15:18:29.862Z,31.83
2023-04-09T15:20:57.388Z,29.45
2023-04-09T15:23:24.984Z,30.52
2023-04-09T15:25:52.576Z,29.48
2023-04-09T15:28:20.402Z,31.93
2023-04-09T15:30:49.357Z,29.23
2023-04-09T15:33:16.858Z,30.80
2023-04-09T15:35:44.482Z,32.83
2023-04-09T15:38:11.998Z,30.27
2023-04-09T15:40:41.380Z,29.63
2023-04-09T15:43:09.539Z,31.98
2023-04-09T15:45:37.198Z,30.20
2023-04-09T15:48:10.384Z,29.55
2023-04-09T15:50:38.330Z,28.27
2023-04-09T15:53:06.419Z,31.67
2023-04-09T15:55:33.986Z,29.48
2023-04-09T15:58:01.576Z,28.67
2023-04-09T16:00:29.162Z,29.92
2023-04-09T16:02:56.686Z,30.30
2023-04-09T16:05:26.178Z,30.33
2023-04-09T16:07:53.894Z,30.65
2023-04-09T16:10:21.400Z,32.42
2023-04-09T16:12:49.031Z,30.58
2023-04-09T16:15:16.741Z,30.15
2023-04-09T16:17:44.340Z,29.40
2023-04-09T16:20:12.126Z,31.83
2023-04-09T16:22:41.156Z,28.30
2023-04-09T16:25:09.579Z,30.38
2023-04-09T16:27:37.180Z,32.55
2023-04-09T16:30:05.281Z,33.97
2023-04-09T16:32:32.836Z,29.77
2023-04-09T16:35:00.803Z,32.85
2023-04-09T16:37:29.170Z,32.08
2023-04-09T16:39:58.386Z,32.45
2023-04-09T16:42:27.285Z,32.60
2023-04-09T16:44:55.297Z,28.90
2023-04-09T16:47:22.932Z,30.20
2023-04-09T16:49:50.484Z,31.55
2023-04-09T16:52:18.073Z,30.42
2023-04-09T16:54:45.686Z,28.83
2023-04-09T16:57:14.636Z,27.25
2023-04-09T16:59:42.892Z,32.65
2023-04-09T17:02:10.498Z,32.42
2023-04-09T17:04:38.293Z,31.60
2023-04-09T17:07:05.909Z,31.77
2023-04-09T17:09:33.416Z,32.15
2023-04-09T17:12:00.979Z,32.70
2023-04-09T17:14:29.949Z,32.08
2023-04-09T17:16:57.582Z,32.17
2023-04-09T17:19:25.471Z,30.87
2023-04-09T17:21:53.053Z,34.00
2023-04-09T17:24:20.588Z,33.17
2023-04-09T17:26:48.169Z,33.85
2023-04-09T17:29:16.506Z,31.13
2023-04-09T17:31:45.546Z,32.37
2023-04-09T17:34:14.462Z,37.47
2023-04-09T17:36:42.347Z,32.25
2023-04-09T17:39:09.920Z,30.08
2023-04-09T17:41:37.611Z,35.88
2023-04-09T17:44:05.470Z,34.27
2023-04-09T17:46:33.063Z,35.67
2023-04-09T17:49:01.953Z,36.10
2023-04-09T17:51:29.721Z,37.67
2023-04-09T17:53:57.250Z,36.15
2023-04-09T17:56:25.140Z,38.17
2023-04-09T17:58:52.899Z,37.25
2023-04-09T18:01:21.128Z,39.35
2023-04-09T18:03:49.350Z,31.63
2023-04-09T18:06:18.578Z,34.92
2023-04-09T18:08:46.082Z,37.63
2023-04-09T18:11:15.417Z,37.03
2023-04-09T18:13:43.026Z,36.65
2023-04-09T18:16:11.183Z,38.53
2023-04-09T18:18:38.905Z,37.08
2023-04-09T18:21:07.064Z,38.30
2023-04-09T18:23:36.053Z,37.45
2023-04-09T18:26:03.587Z,38.05
2023-04-09T18:28:31.194Z,43.13
2023-04-09T18:30:58.955Z,37.78
2023-04-09T18:33:27.007Z,35.80
2023-04-09T18:35:54.630Z,34.47
2023-04-09T18:38:22.678Z,39.40
2023-04-09T18:40:51.607Z,45.38
2023-04-09T18:43:19.212Z,38.80
2023-04-09T18:45:47.101Z,38.33
2023-04-09T18:48:14.943Z,35.42
2023-04-09T18:50:42.599Z,45.45
2023-04-09T18:53:10.945Z,39.25
2023-04-09T18:55:38.571Z,42.63
2023-04-09T18:58:12.461Z,38.63
2023-04-09T19:00:40.593Z,39.05
2023-04-09T19:03:08.519Z,36.92
2023-04-09T19:05:36.542Z,41.90
2023-04-09T19:08:06.650Z,39.30
2023-04-09T19:10:34.383Z,35.87
2023-04-09T19:13:01.942Z,41.92
2023-04-09T19:15:31.094Z,37.83
2023-04-09T19:17:58.817Z,35.78
2023-04-09T19:20:26.534Z,39.88
2023-04-09T19:22:54.688Z,40.40
2023-04-09T19:25:22.621Z,38.22
2023-04-09T19:27:50.295Z,42.60
2023-04-09T19:30:17.865Z,38.25
2023-04-09T19:32:46.792Z,39.20
2023-04-09T19:35:14.344Z,42.13
2023-04-09T19:37:42.505Z,37.63
2023-04-09T19:40:10.813Z,37.90
2023-04-09T19:42:38.349Z,41.15
2023-04-09T19:45:06.745Z,41.42
2023-04-09T19:47:34.705Z,41.77
2023-04-09T19:50:03.788Z,40.03
2023-04-09T19:52:31.683Z,38.45
2023-04-09T19:54:59.276Z,37.40
2023-04-09T19:57:27.069Z,35.63
2023-04-09T19:59:55.023Z,38.27
2023-04-09T20:02:23.708Z,37.47
2023-04-09T20:04:52.171Z,36.55
2023-04-09T20:07:21.189Z,40.38
2023-04-09T20:09:49.516Z,37.22
2023-04-09T20:12:17.038Z,39.77
2023-04-09T20:14:45.778Z,39.17
2023-04-09T20:17:13.417Z,40.42
2023-04-09T20:19:40.999Z,38.35
2023-04-09T20:22:08.564Z,41.60
2023-04-09T20:24:38.222Z,36.73
2023-04-09T20:27:05.834Z,38.40
2023-04-09T20:29:33.782Z,40.85
2023-04-09T20:32:01.334Z,36.15
2023-04-09T20:34:28.963Z,36.38
2023-04-09T20:36:56.664Z,36.67
2023-04-09T20:39:26.645Z,37.50
2023-04-09T20:41:56.541Z,35.05
2023-04-09T20:44:24.382Z,34.95
2023-04-09T20:46:52.050Z,37.35
2023-04-09T20:49:19.613Z,34.73
2023-04-09T20:51:47.488Z,36.60
2023-04-09T20:54:17.800Z,37.10
2023-04-09T20:56:45.529Z,36.15
2023-04-09T20:59:14.539Z,36.10
2023-04-09T21:01:42.124Z,34.57
2023-04-09T21:04:09.793Z,35.97
2023-04-09T21:06:37.396Z,35.63
2023-04-09T21:09:05.301Z,35.60
2023-04-09T21:11:32.896Z,38.13
2023-04-09T21:14:00.666Z,36.70
2023-04-09T21:16:30.823Z,38.80
2023-04-09T21:18:58.374Z,33.53
2023-04-09T21:21:27.294Z,35.30
2023-04-09T21:23:54.981Z,34.78
2023-04-09T21:26:22.499Z,36.00
2023-04-09T21:28:50.867Z,37.20
2023-04-09T21:31:18.638Z,33.63
2023-04-09T21:33:47.609Z,37.67
2023-04-09T21:36:15.573Z,36.30
2023-04-09T21:38:43.162Z,37.83
2023-04-09T21:41:10.918Z,35.13
2023-04-09T21:43:39.121Z,34.22
2023-04-09T21:46:06.723Z,34.13
2023-04-09T21:48:34.317Z,34.70
2023-04-09T21:51:03.534Z,36.23
2023-04-09T21:53:31.667Z,34.60
2023-04-09T21:55:59.228Z,35.60
2023-04-09T21:58:26.773Z,36.63
2023-04-09T22:00:54.291Z,30.55
2023-04-09T22:03:22.351Z,35.23
2023-04-09T22:05:50.210Z,35.83
2023-04-09T22:08:19.130Z,32.33
2023-04-09T22:10:47.371Z,36.75
2023-04-09T22:13:14.912Z,32.42
2023-04-09T22:15:42.686Z,33.17
2023-04-09T22:18:10.308Z,35.28
2023-04-09T22:20:37.814Z,31.83
2023-04-09T22:23:05.594Z,29.40
2023-04-09T22:25:35.238Z,31.88
2023-04-09T22:28:05.645Z,29.13
2023-04-09T22:30:33.173Z,32.38
2023-04-09T22:33:01.895Z,30.80
2023-04-09T22:35:29.726Z,31.95
2023-04-09T22:37:57.270Z,30.80
2023-04-09T22:40:24.817Z,31.23
2023-04-09T22:42:53.719Z,30.88
2023-04-09T22:45:21.558Z,32.42
2023-04-09T22:47:49.223Z,30.52
2023-04-09T22:50:16.974Z,32.38
2023-04-09T22:52:44.490Z,31.50
2023-04-09T22:55:13.516Z,29.75
2023-04-09T22:57:42.839Z,34.13
2023-04-09T23:00:12.692Z,30.15
2023-04-09T23:02:40.765Z,30.33
2023-04-09T23:05:09.505Z,31.33
2023-04-09T23:07:37.093Z,29.48
2023-04-09T23:10:04.899Z,32.42
2023-04-09T23:12:32.448Z,33.75
2023-04-09T23:15:00.140Z,30.75
2023-04-09T23:17:29.013Z,30.23
2023-04-09T23:19:56.783Z,31.85
2023-04-09T23:22:26.195Z,32.75
2023-04-09T23:24:53.956Z,32.33
2023-04-09T23:27:28.019Z,31.38
2023-04-09T23:29:56.115Z,32.50
2023-04-09T23:32:23.938Z,29.75
2023-04-09T23:34:52.930Z,33.95
2023-04-09T23:37:20.567Z,33.00
2023-04-09T23:39:48.485Z,34.90
2023-04-09T23:42:16.000Z,35.87
2023-04-09T23:44:44.720Z,33.20
2023-04-09T23:47:13.656Z,33.83
2023-04-09T23:49:43.375Z,35.63
2023-04-09T23:52:12.246Z,35.55
2023-04-09T23:54:39.821Z,33.93
2023-04-09T23:57:07.464Z,30.88
2023-04-09T23:59:35.908Z,32.30
